Time;durP1;ratioP1;P1;durP2;ratioP2;P2;SDS_P1;SDS_P2;PMS_P1;PMS_P2;Temp;Humidity;BMP_temperature;BMP_pressure;BME280_temperature;BME280_humidity;BME280_pressure;Samples;Min_cycle;Max_cycle;Signal;HPM_P1;HPM_P2
2023/09/13 00:00:32;;;;;;;32.40;21.80;;;;;;;11.79;100.00;101134.95;105900;1258;62579;-86
2023/09/13 00:02:59;;;;;;;34.60;23.40;;;;;;;11.79;100.00;101136.91;105823;1253;73414;-86
2023/09/13 00:05:27;;;;;;;30.20;21.30;;;;;;;11.78;100.00;101139.58;105788;1256;62076;-88
2023/09/13 00:07:55;;;;;;;26.70;19.40;;;;;;;11.77;100.00;101138.39;105835;1257;59660;-90
2023/09/13 00:10:22;;;;;;;29.80;20.10;;;;;;;11.73;100.00;101138.45;105798;1254;72399;-87
2023/09/13 00:12:50;;;;;;;35.20;21.00;;;;;;;11.71;100.00;101135.42;105784;1254;62825;-85
2023/09/13 00:15:17;;;;;;;35.40;18.60;;;;;;;11.71;100.00;101135.10;105715;1254;72597;-89
2023/09/13 00:17:45;;;;;;;31.00;18.60;;;;;;;11.69;100.00;101134.15;105638;1257;60644;-84
2023/09/13 00:20:12;;;;;;;30.50;19.20;;;;;;;11.65;100.00;101133.00;105788;1254;59769;-88
2023/09/13 00:22:40;;;;;;;32.60;19.40;;;;;;;11.63;100.00;101134.82;105862;1255;72117;-88
2023/09/13 00:25:07;;;;;;;29.50;19.10;;;;;;;11.60;100.00;101137.08;105848;1257;63491;-88
2023/09/13 00:27:34;;;;;;;38.50;20.20;;;;;;;11.57;100.00;101137.95;105859;1254;72763;-89
2023/09/13 00:30:02;;;;;;;36.50;19.20;;;;;;;11.54;100.00;101138.83;109443;1253;60496;-87
2023/09/13 00:32:30;;;;;;;35.80;20.20;;;;;;;11.50;100.00;101137.66;109613;1253;58847;-86
2023/09/13 00:34:57;;;;;;;39.30;19.80;;;;;;;11.47;100.00;101135.75;109651;1254;73016;-85
2023/09/13 00:37:25;;;;;;;39.00;21.40;;;;;;;11.45;100.00;101133.92;109469;1253;63128;-87
2023/09/13 00:39:52;;;;;;;34.30;20.70;;;;;;;11.45;100.00;101134.60;109623;1252;72665;-87
2023/09/13 00:42:20;;;;;;;49.00;22.20;;;;;;;11.46;100.00;101135.27;109536;1253;60812;-87
2023/09/13 00:44:47;;;;;;;40.00;21.30;;;;;;;11.46;100.00;101136.16;109621;1253;58810;-87
2023/09/13 00:47:16;;;;;;;39.10;21.80;;;;;;;11.46;100.00;101137.90;109628;1253;73876;-87
2023/09/13 00:49:44;;;;;;;41.80;21.60;;;;;;;11.45;100.00;101137.39;109483;1254;62589;-88
2023/09/13 00:52:11;;;;;;;41.80;22.20;;;;;;;11.46;100.00;101138.42;109475;1253;72633;-88
2023/09/13 00:54:39;;;;;;;43.50;21.00;;;;;;;11.45;100.00;101137.23;109593;1253;60456;-88
2023/09/13 00:57:06;;;;;;;36.10;20.70;;;;;;;11.45;100.00;101141.27;109633;1252;59095;-87
2023/09/13 00:59:34;;;;;;;42.90;22.90;;;;;;;11.44;100.00;101141.67;109594;1252;73863;-85
2023/09/13 01:02:01;;;;;;;36.70;21.40;;;;;;;11.41;100.00;101140.07;109519;1253;62693;-87
2023/09/13 01:04:31;;;;;;;35.30;22.40;;;;;;;11.38;100.00;101139.67;109633;1252;71855;-87
2023/09/13 01:06:59;;;;;;;31.50;20.00;;;;;;;11.35;100.00;101135.83;109437;1253;62958;-86
2023/09/13 01:09:27;;;;;;;42.00;21.60;;;;;;;11.34;100.00;101135.89;109669;1253;58818;-84
2023/09/13 01:11:55;;;;;;;36.10;20.00;;;;;;;11.32;100.00;101136.88;109602;1253;73781;-87
2023/09/13 01:14:22;;;;;;;35.40;20.70;;;;;;;11.31;100.00;101135.73;109556;1253;63778;-87
2023/09/13 01:17:20;;;;;;;33.50;18.60;;;;;;;11.30;100.00;101135.27;109602;1252;71182;-87
2023/09/13 01:19:57;;;;;;;35.00;18.90;;;;;;;11.28;100.00;101135.70;109480;1252;61785;-86
2023/09/13 01:22:45;;;;;;;28.00;19.90;;;;;;;11.27;100.00;101133.67;109622;1252;58880;-87
2023/09/13 01:25:44;;;;;;;30.00;20.10;;;;;;;11.27;100.00;101134.56;109636;1253;73836;-88
2023/09/13 01:28:24;;;;;;;34.00;19.60;;;;;;;11.24;100.00;101131.04;109534;1252;63981;-87
2023/09/13 01:33:45;;;;;;;29.30;19.80;;;;;;;11.26;100.00;101131.42;106148;1292;599976;-84
2023/09/13 01:36:14;;;;;;;31.90;20.30;;;;;;;11.24;100.00;101130.35;108674;1257;61207;-86
2023/09/13 01:38:44;;;;;;;32.00;20.30;;;;;;;11.23;100.00;101130.91;106313;1262;59616;-86
2023/09/13 01:41:26;;;;;;;30.00;20.60;;;;;;;11.22;100.00;101129.21;107068;1261;70857;-85
2023/09/13 01:43:54;;;;;;;34.80;20.90;;;;;;;11.19;100.00;101129.17;106202;1260;63278;-88
2023/09/13 01:46:27;;;;;;;48.00;23.30;;;;;;;11.18;100.00;101128.52;106160;1257;282998;-87
2023/09/13 01:48:55;;;;;;;41.50;23.60;;;;;;;11.19;100.00;101130.26;109215;1256;60634;-87
2023/09/13 01:51:23;;;;;;;39.70;22.70;;;;;;;11.19;100.00;101130.59;109087;1257;60709;-87
2023/09/13 01:53:50;;;;;;;35.40;21.00;;;;;;;11.22;100.00;101132.21;105792;1259;71430;-87
2023/09/13 01:56:21;;;;;;;34.60;22.60;;;;;;;11.23;100.00;101129.32;105669;1260;64833;-89
2023/09/13 01:58:48;;;;;;;32.80;21.30;;;;;;;11.26;100.00;101123.77;105881;1256;72930;-86
2023/09/13 02:01:16;;;;;;;34.60;21.00;;;;;;;11.27;100.00;101122.11;105885;1254;60821;-90
2023/09/13 02:03:44;;;;;;;34.70;21.70;;;;;;;11.29;100.00;101122.36;105920;1253;59676;-88
2023/09/13 02:06:12;;;;;;;37.00;22.20;;;;;;;11.29;100.00;101119.73;105835;1253;71696;-90
2023/09/13 02:08:43;;;;;;;37.50;22.60;;;;;;;11.27;100.00;101115.30;105910;1256;62930;-90
2023/09/13 02:11:10;;;;;;;33.20;21.60;;;;;;;11.25;100.00;101115.42;105805;1259;71690;-88
2023/09/13 02:13:38;;;;;;;37.50;21.80;;;;;;;11.20;100.00;101115.84;105959;1256;60496;-91
2023/09/13 02:16:07;;;;;;;30.70;20.50;;;;;;;11.16;100.00;101111.30;105722;1259;61418;-87
2023/09/13 02:18:35;;;;;;;36.20;21.60;;;;;;;11.14;100.00;101112.48;105867;1258;73082;-87
2023/09/13 02:21:03;;;;;;;36.10;20.40;;;;;;;11.14;100.00;101112.98;105978;1256;61674;-87
2023/09/13 02:23:31;;;;;;;29.50;19.90;;;;;;;11.13;100.00;101108.85;105857;1256;72060;-86
2023/09/13 02:25:58;;;;;;;32.10;22.40;;;;;;;11.12;100.00;101109.61;105810;1260;60623;-86
2023/09/13 02:28:26;;;;;;;39.20;22.00;;;;;;;11.13;100.00;101116.55;105980;1256;59683;-86
2023/09/13 02:30:54;;;;;;;35.70;22.70;;;;;;;11.15;100.00;101116.63;105887;1257;73066;-88
2023/09/13 02:33:21;;;;;;;33.90;24.60;;;;;;;11.18;100.00;101115.44;105890;1258;66245;-86
2023/09/13 02:35:49;;;;;;;30.90;20.80;;;;;;;11.20;100.00;101118.98;105886;1256;72525;-86
2023/09/13 02:38:16;;;;;;;35.30;22.40;;;;;;;11.21;100.00;101118.05;105863;1257;61704;-85
2023/09/13 02:40:44;;;;;;;28.20;20.60;;;;;;;11.19;100.00;101121.33;105796;1258;60358;-90
2023/09/13 02:43:12;;;;;;;36.90;21.00;;;;;;;11.15;100.00;101118.55;105972;1252;73724;-88
2023/09/13 02:45:40;;;;;;;39.10;23.00;;;;;;;11.12;100.00;101116.83;105867;1251;62489;-86
2023/09/13 02:48:07;;;;;;;36.20;23.00;;;;;;;11.07;100.00;101114.29;105841;1257;75204;-90
2023/09/13 02:50:40;;;;;;;35.30;21.80;;;;;;;11.03;100.00;101118.69;105844;1258;60445;-89
2023/09/13 02:53:07;;;;;;;35.60;24.00;;;;;;;10.99;100.00;101116.45;105880;1260;60562;-86
2023/09/13 02:55:35;;;;;;;31.90;22.40;;;;;;;10.95;100.00;101121.57;106015;1252;72135;-88
2023/09/13 02:58:06;;;;;;;35.80;23.80;;;;;;;10.91;100.00;101122.63;105953;1256;65461;-86
2023/09/13 03:00:34;;;;;;;39.90;22.80;;;;;;;10.87;100.00;101124.60;105859;1257;74841;-87
2023/09/13 03:03:01;;;;;;;36.60;24.70;;;;;;;10.84;100.00;101124.05;105668;1259;61602;-87
2023/09/13 03:05:29;;;;;;;35.70;24.50;;;;;;;10.82;100.00;101122.27;105935;1256;60087;-90
2023/09/13 03:07:59;;;;;;;37.90;23.10;;;;;;;10.80;100.00;101125.52;105871;1255;71962;-86
2023/09/13 03:10:27;;;;;;;41.20;25.30;;;;;;;10.77;100.00;101127.05;105761;1258;64495;-85
2023/09/13 03:12:54;;;;;;;40.30;24.20;;;;;;;10.76;100.00;101129.55;105764;1257;70150;-87
2023/09/13 03:15:22;;;;;;;43.50;24.90;;;;;;;10.74;100.00;101132.46;105785;1258;61726;-87
2023/09/13 03:17:50;;;;;;;38.70;24.70;;;;;;;10.71;100.00;101133.67;105836;1257;59736;-86
2023/09/13 03:20:18;;;;;;;43.90;23.20;;;;;;;10.69;100.00;101134.16;105892;1251;73043;-89
2023/09/13 03:22:46;;;;;;;37.50;24.10;;;;;;;10.67;100.00;101132.86;105672;1254;62878;-90
2023/09/13 03:25:13;;;;;;;39.00;24.30;;;;;;;10.66;100.00;101130.45;105902;1254;72742;-89
2023/09/13 03:27:41;;;;;;;54.60;25.90;;;;;;;10.65;100.00;101132.42;105988;1253;61776;-88
2023/09/13 03:30:11;;;;;;;36.80;24.70;;;;;;;10.64;100.00;101135.45;105888;1258;59704;-88
2023/09/13 03:32:39;;;;;;;38.00;25.50;;;;;;;10.62;100.00;101136.93;105907;1261;72214;-85
2023/09/13 03:35:07;;;;;;;38.10;24.50;;;;;;;10.61;100.00;101145.75;106313;1257;62515;-85
2023/09/13 03:37:35;;;;;;;38.30;24.40;;;;;;;10.60;100.00;101143.86;106073;1255;73377;-85
2023/09/13 03:40:05;;;;;;;33.30;24.40;;;;;;;10.60;100.00;101148.41;106095;1254;60403;-85
2023/09/13 03:42:33;;;;;;;39.10;22.60;;;;;;;10.60;100.00;101152.77;105893;1251;60006;-87
2023/09/13 03:45:01;;;;;;;39.50;25.20;;;;;;;10.60;100.00;101153.48;105922;1256;71582;-86
2023/09/13 03:47:29;;;;;;;38.50;25.10;;;;;;;10.61;100.00;101157.30;105994;1252;62458;-87
2023/09/13 03:49:57;;;;;;;41.30;25.30;;;;;;;10.63;100.00;101156.48;105975;1254;71478;-89
2023/09/13 03:52:25;;;;;;;41.60;27.40;;;;;;;10.64;100.00;101157.98;106004;1252;60578;-88
2023/09/13 03:54:53;;;;;;;45.30;26.40;;;;;;;10.67;100.00;101162.05;105909;1256;59737;-86
2023/09/13 03:57:20;;;;;;;49.30;27.00;;;;;;;10.70;100.00;101169.57;105764;1256;72969;-89
2023/09/13 03:59:48;;;;;;;46.90;24.20;;;;;;;10.73;100.00;101171.16;105899;1251;63207;-89
2023/09/13 04:02:15;;;;;;;43.20;24.20;;;;;;;10.77;100.00;101170.59;105984;1251;71505;-89
2023/09/13 04:04:43;;;;;;;40.80;26.20;;;;;;;10.82;100.00;101172.27;105851;1254;60464;-86
2023/09/13 04:07:10;;;;;;;41.10;23.40;;;;;;;10.88;100.00;101171.64;105596;1256;60038;-88
2023/09/13 04:09:38;;;;;;;41.30;25.70;;;;;;;10.93;100.00;101173.95;105858;1256;73614;-90
2023/09/13 04:12:05;;;;;;;42.10;25.20;;;;;;;11.01;100.00;101172.15;105758;1258;64950;-89
2023/09/13 04:14:36;;;;;;;40.50;25.80;;;;;;;11.10;100.00;101171.00;106044;1251;72688;-88
2023/09/13 04:17:04;;;;;;;49.10;29.50;;;;;;;11.19;100.00;101176.61;105634;1257;61878;-88
2023/09/13 04:19:32;;;;;;;43.60;28.30;;;;;;;11.29;100.00;101172.23;105935;1251;59990;-89
2023/09/13 04:21:59;;;;;;;48.10;28.60;;;;;;;11.38;100.00;101173.11;105735;1258;73338;-90
2023/09/13 04:24:26;;;;;;;45.60;28.50;;;;;;;11.49;100.00;101172.35;105835;1251;63680;-88
2023/09/13 04:26:54;;;;;;;48.80;30.10;;;;;;;11.60;100.00;101173.17;105891;1257;72378;-88
2023/09/13 04:29:22;;;;;;;46.70;27.80;;;;;;;11.70;100.00;101169.45;106127;1251;61777;-87
2023/09/13 04:31:49;;;;;;;43.50;30.30;;;;;;;11.82;100.00;101171.77;106075;1251;60144;-86
2023/09/13 04:34:17;;;;;;;40.40;27.70;;;;;;;11.94;100.00;101170.80;106258;1251;72791;-87
2023/09/13 04:36:45;;;;;;;45.80;26.90;;;;;;;12.05;100.00;101173.34;105971;1251;62484;-87
2023/09/13 04:39:13;;;;;;;44.40;28.80;;;;;;;12.14;100.00;101171.38;105845;1257;72517;-85
2023/09/13 04:41:40;;;;;;;38.70;27.30;;;;;;;12.25;100.00;101175.15;105808;1256;62065;-88
2023/09/13 04:44:08;;;;;;;42.90;26.80;;;;;;;12.35;100.00;101175.45;105877;1257;59672;-89
2023/09/13 04:46:35;;;;;;;43.20;27.40;;;;;;;12.45;100.00;101174.67;105802;1257;71944;-89
2023/09/13 04:49:03;;;;;;;47.50;28.80;;;;;;;12.56;100.00;101173.29;105840;1254;63718;-87
2023/09/13 04:51:31;;;;;;;51.40;28.50;;;;;;;12.68;100.00;101174.16;106037;1256;73566;-88
2023/09/13 04:53:58;;;;;;;44.30;29.60;;;;;;;12.82;100.00;101176.15;106250;1256;60447;-86
2023/09/13 04:56:28;;;;;;;50.80;30.00;;;;;;;12.99;100.00;101175.15;108941;1251;59016;-85
2023/09/13 04:58:56;;;;;;;45.10;28.80;;;;;;;13.18;100.00;101174.11;108347;1251;72103;-85
2023/09/13 05:01:23;;;;;;;50.10;29.00;;;;;;;13.46;100.00;101170.45;107821;1255;63764;-87
2023/09/13 05:03:52;;;;;;;42.20;28.90;;;;;;;13.96;100.00;101175.20;105914;1260;72965;-86
2023/09/13 05:06:20;;;;;;;41.00;26.60;;;;;;;14.64;100.00;101175.92;105984;1255;63023;-85
2023/09/13 05:08:49;;;;;;;50.40;28.00;;;;;;;15.38;100.00;101176.73;106034;1251;59949;-88
2023/09/13 05:11:16;;;;;;;52.50;26.70;;;;;;;16.16;100.00;101180.50;106361;1251;71697;-84
2023/09/13 05:13:47;;;;;;;48.60;25.20;;;;;;;16.94;100.00;101183.27;108977;1251;62588;-87
2023/09/13 05:16:19;;;;;;;47.00;24.80;;;;;;;17.72;100.00;101187.67;107364;1259;75347;-86
2023/09/13 05:18:49;;;;;;;37.20;24.10;;;;;;;18.42;100.00;101191.61;106185;1257;60500;-88
2023/09/13 05:21:17;;;;;;;40.60;24.90;;;;;;;18.87;100.00;101185.56;105817;1257;59699;-88
2023/09/13 05:23:44;;;;;;;39.60;25.60;;;;;;;19.20;100.00;101192.64;105898;1256;73128;-85
2023/09/13 05:26:12;;;;;;;37.70;24.30;;;;;;;19.35;100.00;101192.60;105864;1253;63867;-89
2023/09/13 05:28:40;;;;;;;36.00;23.30;;;;;;;19.33;100.00;101193.44;105900;1251;72575;-92
2023/09/13 05:31:07;;;;;;;36.80;24.00;;;;;;;19.25;100.00;101198.02;105960;1257;61694;-86
2023/09/13 05:33:35;;;;;;;43.30;25.10;;;;;;;19.28;100.00;101201.69;105950;1256;59644;-89
2023/09/13 05:36:09;;;;;;;33.50;23.20;;;;;;;19.52;100.00;101199.23;105828;1251;73304;-89
2023/09/13 05:38:37;;;;;;;;;;;;;;;19.72;100.00;101202.46;106055;1251;63537;-86
2023/09/13 05:41:16;;;;;;;33.60;22.20;;;;;;;19.92;100.00;101204.42;106051;1251;71386;-87
2023/09/13 05:43:46;;;;;;;38.60;21.70;;;;;;;20.28;100.00;101201.84;106094;1251;60526;-88
2023/09/13 05:46:15;;;;;;;44.60;21.00;;;;;;;20.78;100.00;101203.98;106018;1256;60558;-86
2023/09/13 05:48:45;;;;;;;31.90;20.90;;;;;;;21.34;100.00;101194.02;106025;1251;74080;-87
2023/09/13 05:51:19;;;;;;;34.70;22.00;;;;;;;21.98;100.00;101198.69;105659;1251;65619;-87
2023/09/13 05:53:46;;;;;;;44.90;21.80;;;;;;;22.59;100.00;101195.76;105791;1253;71620;-90
2023/09/13 06:18:16;;;;;;;32.80;24.40;;;;;;;27.60;53.53;101183.46;106162;1251;61736;-88
2023/09/13 06:20:45;;;;;;;34.50;22.30;;;;;;;28.11;52.14;101183.99;106434;1251;60790;-89
2023/09/13 06:23:32;;;;;;;37.70;24.90;;;;;;;28.51;50.04;101177.73;106176;1256;74719;-92
2023/09/13 06:26:00;;;;;;;42.20;24.50;;;;;;;28.91;47.49;101178.29;106312;1256;63103;-89
2023/09/13 06:28:29;;;;;;;37.60;24.10;;;;;;;29.21;44.95;101181.67;105996;1254;72146;-91
2023/09/13 06:30:57;;;;;;;39.90;28.60;;;;;;;29.53;44.32;101176.50;106980;1254;60543;-90
2023/09/13 06:33:31;;;;;;;42.00;27.80;;;;;;;29.85;43.08;101172.98;106446;1255;60558;-89
2023/09/13 06:36:01;;;;;;;38.00;25.50;;;;;;;30.08;41.58;101174.62;106217;1257;74371;-92
2023/09/13 06:38:29;;;;;;;32.00;21.30;;;;;;;30.20;42.42;101176.29;106247;1257;62422;-88
2023/09/13 06:40:57;;;;;;;25.80;22.00;;;;;;;30.40;42.02;101175.30;106115;1254;71047;-90
2023/09/13 06:43:25;;;;;;;33.20;23.40;;;;;;;30.53;41.10;101175.63;106207;1255;60605;-88
2023/09/13 06:45:56;;;;;;;32.40;24.60;;;;;;;30.55;41.68;101177.38;106066;1257;60550;-88
2023/09/13 06:48:33;;;;;;;35.30;23.70;;;;;;;30.56;41.58;101176.05;106293;1251;73766;-88
2023/09/13 06:51:03;;;;;;;33.90;23.60;;;;;;;30.56;41.37;101183.36;105930;1251;63774;-87
2023/09/13 06:53:34;;;;;;;28.50;21.80;;;;;;;30.55;40.90;101180.20;106151;1251;71343;-90
2023/09/13 06:56:04;;;;;;;25.90;21.80;;;;;;;30.56;40.92;101185.04;105990;1251;60533;-90
2023/09/13 06:58:36;;;;;;;32.10;21.80;;;;;;;30.68;40.53;101185.61;105979;1251;60497;-90
2023/09/13 07:01:10;;;;;;;26.50;20.50;;;;;;;30.81;40.24;101184.20;106114;1251;76177;-91
2023/09/13 07:03:40;;;;;;;23.90;19.20;;;;;;;30.93;39.51;101185.73;106037;1256;62294;-92
2023/09/13 07:06:19;;;;;;;23.30;18.70;;;;;;;31.00;38.56;101189.62;106098;1251;71850;-88
2023/09/13 07:08:49;;;;;;;19.80;14.80;;;;;;;31.08;38.09;101188.67;106062;1256;60633;-91
2023/09/13 07:11:19;;;;;;;18.60;12.40;;;;;;;31.25;37.64;101188.58;106168;1255;60940;-88
2023/09/13 07:13:50;;;;;;;18.60;10.30;;;;;;;31.37;36.66;101190.98;106202;1251;74473;-89
2023/09/13 07:16:18;;;;;;;16.50;11.20;;;;;;;31.48;36.41;101193.83;106134;1254;62983;-89
2023/09/13 07:18:55;;;;;;;22.80;10.40;;;;;;;31.79;36.06;101187.94;106192;1257;72879;-87
2023/09/13 07:21:23;;;;;;;19.20;9.80;;;;;;;32.20;35.16;101188.90;106555;1251;60500;-90
2023/09/13 07:23:51;;;;;;;16.90;10.60;;;;;;;32.59;34.07;101186.81;106351;1251;60463;-90
2023/09/13 07:26:20;;;;;;;24.30;11.90;;;;;;;32.99;33.07;101187.65;106002;1254;74020;-89
2023/09/13 07:28:48;;;;;;;16.00;9.70;;;;;;;33.35;32.23;101187.43;106164;1257;63582;-91
2023/09/13 07:31:18;;;;;;;18.50;9.90;;;;;;;33.63;31.39;101186.90;106318;1251;71805;-85
2023/09/13 07:33:47;;;;;;;19.30;11.80;;;;;;;33.82;30.83;101181.20;106153;1253;60546;-89
2023/09/13 07:36:16;;;;;;;21.80;12.50;;;;;;;34.01;30.57;101181.09;105850;1251;60459;-88
2023/09/13 07:38:46;;;;;;;20.90;9.30;;;;;;;34.19;30.43;101185.14;106260;1251;74129;-87
2023/09/13 07:53:23;;;;;;;15.20;7.70;;;;;;;34.51;27.25;101181.14;103284;1292;603943;-87
2023/09/13 07:55:51;;;;;;;13.90;6.30;;;;;;;34.60;27.30;101179.63;105743;1263;59306;-89
2023/09/13 07:58:23;;;;;;;8.00;5.60;;;;;;;34.69;26.96;101177.39;106153;1260;60642;-89
2023/09/13 08:00:53;;;;;;;13.20;5.30;;;;;;;34.69;26.18;101177.80;105911;1260;70670;-92
2023/09/13 08:06:36;;;;;;;10.60;7.40;;;;;;;34.84;27.06;101175.58;101705;1280;992962;-73
2023/09/13 08:09:05;;;;;;;11.70;8.40;;;;;;;34.92;26.93;101174.21;103763;1283;60514;-71
2023/09/13 08:11:33;;;;;;;9.00;6.70;;;;;;;35.03;26.72;101175.37;103766;1277;60266;-73
2023/09/13 08:14:00;;;;;;;11.30;7.40;;;;;;;35.13;26.73;101177.44;103904;1282;72851;-74
2023/09/13 08:16:27;;;;;;;10.40;7.20;;;;;;;35.30;26.89;101174.20;103768;1282;63986;-71
2023/09/13 08:18:55;;;;;;;10.80;6.60;;;;;;;35.51;26.36;101175.50;103883;1282;72763;-71
2023/09/13 08:21:23;;;;;;;12.60;6.70;;;;;;;35.61;26.23;101177.07;104018;1283;60493;-70
2023/09/13 08:23:50;;;;;;;10.40;8.60;;;;;;;35.69;26.05;101177.55;103827;1283;61141;-72
2023/09/13 08:26:17;;;;;;;7.00;5.70;;;;;;;35.71;25.99;101174.04;103800;1281;73015;-70
2023/09/13 08:28:54;;;;;;;7.60;6.00;;;;;;;35.65;25.71;101178.13;103934;1282;63748;-71
2023/09/13 08:31:23;;;;;;;11.50;6.50;;;;;;;35.42;25.65;101174.79;103919;1283;72769;-70
2023/09/13 08:33:54;;;;;;;8.80;5.50;;;;;;;35.19;25.67;101169.66;103868;1279;60459;-72
2023/09/13 08:36:21;;;;;;;8.90;6.80;;;;;;;34.97;25.90;101165.70;103839;1281;60385;-73
2023/09/13 08:38:48;;;;;;;7.50;6.60;;;;;;;34.83;25.95;101169.77;103681;1278;73154;-73
2023/09/13 08:41:18;;;;;;;10.80;8.00;;;;;;;34.93;26.32;101167.77;103734;1283;64389;-72
2023/09/13 08:43:45;;;;;;;6.70;5.80;;;;;;;35.14;25.91;101161.52;103767;1282;72918;-71
2023/09/13 08:46:12;;;;;;;9.60;6.90;;;;;;;35.24;25.07;101161.36;103513;1286;60526;-75
2023/09/13 08:50:04;;;;;;;14.60;8.70;;;;;;;35.32;26.03;101163.96;102720;1294;600275;-70
2023/09/13 08:52:32;;;;;;;10.20;7.60;;;;;;;35.45;26.05;101163.39;104688;1267;62593;-72
2023/09/13 08:54:59;;;;;;;10.70;7.80;;;;;;;35.66;25.72;101158.82;104716;1270;60932;-73
2023/09/13 08:57:28;;;;;;;9.30;7.90;;;;;;;35.84;25.84;101162.09;104913;1267;71234;-73
2023/09/13 08:59:56;;;;;;;12.30;7.70;;;;;;;35.90;25.94;101157.98;105191;1266;62819;-73
2023/09/13 09:02:23;;;;;;;8.90;6.80;;;;;;;36.09;25.59;101154.63;104945;1264;71642;-75
2023/09/13 09:04:51;;;;;;;11.00;7.60;;;;;;;36.31;25.08;101152.46;104991;1260;213135;-73
2023/09/13 09:07:19;;;;;;;7.50;6.10;;;;;;;36.43;24.90;101153.90;105125;1260;59381;-75
2023/09/13 09:09:50;;;;;;;9.40;6.30;;;;;;;36.44;24.69;101151.61;105287;1265;74224;-72
2023/09/13 09:12:20;;;;;;;15.60;6.40;;;;;;;36.39;24.51;101146.73;104902;1266;59350;-75
2023/09/13 09:14:49;;;;;;;5.40;4.90;;;;;;;36.30;24.19;101147.65;104916;1266;63366;-72
2023/09/13 09:17:22;;;;;;;4.90;4.40;;;;;;;36.18;24.22;101147.19;105108;1267;59661;-73
2023/09/13 09:19:50;;;;;;;7.70;5.00;;;;;;;36.15;24.17;101147.16;105017;1261;59734;-73
2023/09/13 09:22:19;;;;;;;7.20;5.00;;;;;;;36.17;24.44;101144.23;104992;1261;72161;-75
2023/09/13 09:24:47;;;;;;;8.10;4.60;;;;;;;36.30;24.58;101143.88;105002;1263;59783;-76
2023/09/13 09:27:14;;;;;;;7.90;4.50;;;;;;;36.44;23.91;101144.16;105237;1264;73862;-76
2023/09/13 09:29:46;;;;;;;7.30;4.50;;;;;;;36.35;23.58;101138.82;105047;1264;61398;-74
2023/09/13 09:32:14;;;;;;;4.50;3.90;;;;;;;36.24;23.99;101132.15;105325;1264;59832;-76
2023/09/13 09:34:42;;;;;;;4.60;4.20;;;;;;;36.21;23.97;101132.59;104959;1269;75290;-74
2023/09/13 09:37:13;;;;;;;5.50;4.10;;;;;;;36.27;23.70;101133.83;105039;1260;59840;-73
2023/09/13 09:39:43;;;;;;;4.30;4.00;;;;;;;36.39;23.73;101136.30;105021;1268;63928;-73
2023/09/13 09:42:14;;;;;;;6.60;3.30;;;;;;;36.44;23.33;101133.69;105134;1260;62982;-72
2023/09/13 09:45:00;;;;;;;5.70;3.80;;;;;;;36.39;23.00;101127.98;102648;1296;601433;-73
2023/09/13 09:47:30;;;;;;;5.50;3.50;;;;;;;36.22;23.03;101126.89;104713;1273;59332;-72
2023/09/13 09:50:03;;;;;;;10.00;3.40;;;;;;;35.99;22.30;101126.17;104551;1267;62545;-75
2023/09/13 09:52:34;;;;;;;5.10;3.20;;;;;;;35.84;22.77;101127.27;104734;1273;76296;-73
2023/09/13 09:55:04;;;;;;;4.30;3.00;;;;;;;35.82;22.42;101128.48;105167;1264;59301;-72
2023/09/13 09:57:32;;;;;;;4.20;3.00;;;;;;;35.76;22.67;101127.62;105114;1261;227559;-73
2023/09/13 10:00:00;;;;;;;4.70;3.10;;;;;;;35.66;23.37;101127.81;105290;1257;59317;-75
2023/09/13 10:02:35;;;;;;;5.50;2.90;;;;;;;35.52;23.10;101126.85;104815;1263;231059;-73
2023/09/13 10:05:03;;;;;;;3.00;2.10;;;;;;;35.46;23.11;101126.97;105012;1263;72709;-74
2023/09/13 10:07:40;;;;;;;3.10;2.50;;;;;;;35.41;22.12;101130.30;105125;1265;63743;-72
2023/09/13 10:10:09;;;;;;;2.10;1.90;;;;;;;35.31;21.81;101131.60;105245;1262;71212;-74
2023/09/13 10:12:47;;;;;;;2.30;2.10;;;;;;;35.31;22.00;101133.05;105119;1260;59725;-73
2023/09/13 10:15:17;;;;;;;7.70;3.00;;;;;;;35.42;21.98;101132.14;105026;1261;61728;-71
2023/09/13 10:17:45;;;;;;;2.50;2.20;;;;;;;35.53;21.57;101130.09;105031;1262;73479;-71
2023/09/13 10:20:14;;;;;;;1.60;1.40;;;;;;;35.51;21.70;101128.46;105021;1267;62771;-73
2023/09/13 10:22:42;;;;;;;7.70;2.10;;;;;;;35.53;21.57;101126.20;105239;1257;73261;-76
2023/09/13 10:25:14;;;;;;;3.00;2.20;;;;;;;35.60;21.76;101126.99;105307;1259;60121;-72
2023/09/13 10:27:43;;;;;;;7.40;2.70;;;;;;;35.74;21.53;101124.14;105411;1258;61775;-76
2023/09/13 10:30:13;;;;;;;4.40;3.00;;;;;;;35.79;21.93;101122.85;105495;1259;64994;-75
2023/09/13 10:32:45;;;;;;;3.10;2.60;;;;;;;35.66;21.97;101125.80;105425;1263;59799;-73
2023/09/13 10:35:12;;;;;;;;;;;;;;;35.47;21.73;101118.79;105305;1258;75535;-71
2023/09/13 10:37:59;;;;;;;5.20;2.80;;;;;;;35.40;22.11;101119.71;105473;1261;60181;-73
2023/09/13 10:40:37;;;;;;;3.40;2.90;;;;;;;35.50;21.91;101115.90;105181;1264;60444;-73
2023/09/13 10:43:05;;;;;;;2.90;2.70;;;;;;;35.67;22.23;101117.35;105368;1257;72623;-73
2023/09/13 10:45:32;;;;;;;5.60;3.00;;;;;;;35.78;21.97;101117.61;105321;1258;64597;-73
2023/09/13 10:48:01;;;;;;;3.50;2.50;;;;;;;35.84;21.98;101117.27;105193;1257;73362;-74
2023/09/13 10:50:31;;;;;;;3.80;3.10;;;;;;;35.87;22.07;101112.17;105267;1259;59715;-73
2023/09/13 10:53:00;;;;;;;6.10;3.00;;;;;;;35.84;21.95;101108.80;105258;1257;62051;-74
2023/09/13 10:55:28;;;;;;;5.00;2.90;;;;;;;35.86;22.67;101112.50;105257;1261;75022;-73
2023/09/13 10:57:56;;;;;;;3.20;2.60;;;;;;;35.85;22.12;101109.85;105222;1264;63580;-72
2023/09/13 11:00:25;;;;;;;7.60;3.40;;;;;;;35.78;22.14;101107.77;105228;1263;73995;-72
2023/09/13 11:02:53;;;;;;;6.20;4.80;;;;;;;35.70;22.42;101106.98;105142;1264;62799;-75
2023/09/13 11:05:21;;;;;;;4.20;2.80;;;;;;;35.65;22.77;101105.17;105318;1263;59659;-75
2023/09/13 11:07:49;;;;;;;3.60;3.00;;;;;;;35.67;22.44;101105.95;105178;1264;72791;-75
2023/09/13 11:10:19;;;;;;;5.90;3.10;;;;;;;35.68;22.58;101101.99;105265;1257;65950;-75
2023/09/13 11:12:50;;;;;;;6.30;3.50;;;;;;;35.59;22.42;101102.64;105547;1257;74481;-76
2023/09/13 11:15:23;;;;;;;3.70;3.30;;;;;;;35.25;22.74;101108.04;105325;1258;60372;-71
2023/09/13 11:17:56;;;;;;;3.90;3.50;;;;;;;34.88;22.65;101104.81;105198;1264;61895;-74
2023/09/13 11:20:36;;;;;;;5.60;3.60;;;;;;;34.51;23.28;101101.89;105251;1258;74010;-73
2023/09/13 11:23:10;;;;;;;4.20;3.60;;;;;;;34.31;23.66;101100.24;105356;1258;63352;-76
2023/09/13 11:26:02;;;;;;;7.20;3.60;;;;;;;34.00;24.06;101099.20;105276;1257;73272;-76
2023/09/13 11:28:38;;;;;;;3.60;2.90;;;;;;;33.76;24.51;101093.98;105156;1259;59811;-72
2023/09/13 11:31:08;;;;;;;4.10;3.70;;;;;;;33.46;24.55;101096.45;105179;1258;60101;-76
2023/09/13 11:33:51;;;;;;;4.40;3.00;;;;;;;33.04;25.06;101094.19;105266;1258;71541;-72
2023/09/13 11:36:20;;;;;;;6.60;3.90;;;;;;;32.69;25.38;101096.58;105326;1258;62834;-70
2023/09/13 11:38:52;;;;;;;5.00;3.90;;;;;;;32.45;26.05;101090.57;105164;1259;71453;-71
2023/09/13 11:41:19;;;;;;;4.80;3.70;;;;;;;32.20;26.05;101088.73;105181;1258;59757;-74
2023/09/13 11:43:48;;;;;;;7.60;3.50;;;;;;;32.02;25.89;101089.36;105198;1258;62017;-74
2023/09/13 11:46:33;;;;;;;6.30;3.30;;;;;;;32.00;25.69;101088.70;105182;1261;71570;-72
2023/09/13 11:49:00;;;;;;;6.20;3.80;;;;;;;31.99;26.04;101083.30;105258;1261;62830;-72
2023/09/13 11:51:32;;;;;;;7.40;3.60;;;;;;;32.04;26.19;101085.89;105211;1258;75341;-74
2023/09/13 11:54:21;;;;;;;7.30;3.80;;;;;;;32.04;26.30;101080.24;105327;1259;60535;-71